createdAt,value
2022-08-26T00:01:44.254Z,0.70
2022-08-26T00:04:12.471Z,0.73
2022-08-26T00:06:42.476Z,0.80
2022-08-26T00:09:16.103Z,0.60
2022-08-26T00:11:47.413Z,1.10
2022-08-26T00:14:15.787Z,0.90
2022-08-26T00:16:48.016Z,0.70
2022-08-26T00:19:20.301Z,0.80
2022-08-26T00:21:48.695Z,0.90
2022-08-26T00:24:17.811Z,0.70
2022-08-26T00:26:45.380Z,0.80
2022-08-26T00:29:13.925Z,0.60
2022-08-26T00:31:42.558Z,0.50
2022-08-26T00:34:12.660Z,0.60
2022-08-26T00:36:41.476Z,0.50
2022-08-26T00:39:09.276Z,0.80
2022-08-26T00:41:38.858Z,0.77
2022-08-26T00:44:06.583Z,0.67
2022-08-26T00:46:39.862Z,0.70
2022-08-26T00:49:19.191Z,0.60
2022-08-26T00:51:49.421Z,0.70
2022-08-26T00:54:18.381Z,0.63
2022-08-26T00:56:46.989Z,0.80
2022-08-26T00:59:17.221Z,0.70
2022-08-26T01:01:45.921Z,0.80
2022-08-26T01:04:15.195Z,0.70
2022-08-26T01:06:42.580Z,0.70
2022-08-26T01:09:12.172Z,0.70
2022-08-26T01:11:39.688Z,0.80
2022-08-26T01:14:07.537Z,0.80
2022-08-26T01:16:36.242Z,0.50
2022-08-26T01:19:08.556Z,0.80
2022-08-26T01:21:40.679Z,0.87
2022-08-26T01:24:10.242Z,0.50
2022-08-26T01:26:42.506Z,0.80
2022-08-26T01:29:12.870Z,0.80
2022-08-26T01:31:42.877Z,0.70
2022-08-26T01:34:22.222Z,0.77
2022-08-26T01:36:51.607Z,0.70
2022-08-26T01:39:19.577Z,0.80
2022-08-26T01:41:47.995Z,0.80
2022-08-26T01:44:23.060Z,0.60
2022-08-26T01:46:51.504Z,0.70
2022-08-26T01:49:19.862Z,0.60
2022-08-26T01:51:48.104Z,0.60
2022-08-26T01:54:16.682Z,0.70
2022-08-26T01:56:48.671Z,0.60
2022-08-26T01:59:17.483Z,0.70
2022-08-26T02:01:44.836Z,0.70
2022-08-26T02:04:28.570Z,0.70
2022-08-26T02:06:56.925Z,0.60
2022-08-26T02:09:24.952Z,0.70
2022-08-26T02:11:52.755Z,0.60
2022-08-26T02:14:27.009Z,0.60
2022-08-26T02:16:56.053Z,0.60
2022-08-26T02:19:31.545Z,0.70
2022-08-26T02:22:00.699Z,0.50
2022-08-26T02:24:31.935Z,0.50
2022-08-26T02:26:59.402Z,0.60
2022-08-26T02:29:31.650Z,0.70
2022-08-26T02:31:59.449Z,0.50
2022-08-26T02:34:28.402Z,0.70
2022-08-26T02:37:04.306Z,0.67
2022-08-26T02:39:32.823Z,0.60
2022-08-26T02:42:00.241Z,0.70
2022-08-26T02:44:27.649Z,0.60
2022-08-26T02:46:55.273Z,0.80
2022-08-26T02:49:23.720Z,0.70
2022-08-26T02:51:51.404Z,0.60
2022-08-26T02:54:21.362Z,0.73
2022-08-26T02:56:48.888Z,0.70
2022-08-26T02:59:16.235Z,0.60
2022-08-26T03:01:45.149Z,0.50
2022-08-26T03:04:13.039Z,0.70
2022-08-26T03:06:41.705Z,0.70
2022-08-26T03:09:09.697Z,0.80
2022-08-26T03:11:37.771Z,0.60
2022-08-26T03:14:05.108Z,0.60
2022-08-26T03:16:34.121Z,0.80
2022-08-26T03:19:02.797Z,0.60
2022-08-26T03:21:30.992Z,0.60
2022-08-26T03:23:58.720Z,0.73
2022-08-26T03:26:26.957Z,0.60
2022-08-26T03:29:13.938Z,0.60
2022-08-26T03:31:41.496Z,0.70
2022-08-26T03:34:11.305Z,0.63
2022-08-26T03:36:38.948Z,0.60
2022-08-26T03:39:09.206Z,0.50
2022-08-26T03:41:37.203Z,0.57
2022-08-26T03:44:05.912Z,0.60
2022-08-26T03:46:33.778Z,0.60
2022-08-26T03:49:02.307Z,0.80
2022-08-26T03:51:31.581Z,0.60
2022-08-26T03:54:02.950Z,0.60
2022-08-26T03:56:33.241Z,0.60
2022-08-26T03:59:01.004Z,0.70
2022-08-26T04:01:30.207Z,0.70
2022-08-26T04:04:00.639Z,0.70
2022-08-26T04:06:31.349Z,0.80
2022-08-26T04:09:00.147Z,0.60
2022-08-26T04:11:31.332Z,0.60
2022-08-26T04:14:02.743Z,0.60
2022-08-26T04:16:30.266Z,0.63
2022-08-26T04:18:58.376Z,0.60
2022-08-26T04:21:26.194Z,0.70
2022-08-26T04:23:54.686Z,0.70
2022-08-26T04:26:23.504Z,0.70
2022-08-26T04:28:52.009Z,0.80
2022-08-26T04:31:19.885Z,0.70
2022-08-26T04:33:49.655Z,0.70
2022-08-26T04:36:19.962Z,0.70
2022-08-26T04:38:48.050Z,0.60
2022-08-26T04:41:17.030Z,0.67
2022-08-26T04:43:46.444Z,0.70
2022-08-26T04:46:14.682Z,0.70
2022-08-26T04:48:43.315Z,1.00
2022-08-26T04:51:10.721Z,0.80
2022-08-26T04:53:38.778Z,0.90
2022-08-26T04:56:06.257Z,0.80
2022-08-26T04:58:34.335Z,0.70
2022-08-26T05:01:01.713Z,1.07
2022-08-26T05:03:30.358Z,0.80
2022-08-26T05:05:58.408Z,0.83
2022-08-26T05:08:25.790Z,0.73
2022-08-26T05:10:57.520Z,0.80
2022-08-26T05:13:26.184Z,0.60
2022-08-26T05:15:54.471Z,0.70
2022-08-26T05:18:24.630Z,0.60
2022-08-26T05:20:54.868Z,0.80
2022-08-26T05:23:23.234Z,0.90
2022-08-26T05:25:55.826Z,0.80
2022-08-26T05:28:26.546Z,0.73
2022-08-26T05:30:55.535Z,0.87
2022-08-26T05:33:23.487Z,0.70
2022-08-26T05:35:50.977Z,0.70
2022-08-26T05:38:22.272Z,0.70
2022-08-26T05:40:52.750Z,0.83
2022-08-26T05:43:21.991Z,0.87
2022-08-26T05:45:50.304Z,0.80
2022-08-26T05:48:19.022Z,0.80
2022-08-26T05:50:51.458Z,0.70
2022-08-26T05:53:20.627Z,0.80
2022-08-26T05:55:49.596Z,0.70
2022-08-26T05:58:17.439Z,0.80
2022-08-26T06:00:45.235Z,1.00
2022-08-26T06:03:12.603Z,0.80
2022-08-26T06:05:40.716Z,0.90
2022-08-26T06:08:11.669Z,0.90
2022-08-26T06:10:48.114Z,0.90
2022-08-26T06:13:17.125Z,0.90
2022-08-26T06:15:45.695Z,0.80
2022-08-26T06:18:14.581Z,0.90
2022-08-26T06:20:57.058Z,0.90
2022-08-26T06:23:44.808Z,0.70
2022-08-26T06:26:12.586Z,0.93
2022-08-26T06:28:39.905Z,0.87
2022-08-26T06:31:11.090Z,0.77
2022-08-26T06:33:38.456Z,1.00
2022-08-26T06:36:06.853Z,0.80
2022-08-26T06:38:34.286Z,0.80
2022-08-26T06:41:03.833Z,0.70
2022-08-26T06:43:31.130Z,0.73
2022-08-26T06:46:02.109Z,0.80
2022-08-26T06:48:32.327Z,0.90
2022-08-26T06:51:07.828Z,0.80
2022-08-26T06:53:35.515Z,0.70
2022-08-26T06:56:03.887Z,1.00
2022-08-26T06:58:31.390Z,0.80
2022-08-26T07:01:03.775Z,0.70
2022-08-26T07:03:39.633Z,0.80
2022-08-26T07:06:07.458Z,0.80
2022-08-26T07:08:34.814Z,1.00
2022-08-26T07:11:06.600Z,0.70
2022-08-26T07:13:39.074Z,0.90
2022-08-26T07:16:08.494Z,0.80
2022-08-26T07:18:37.588Z,0.90
2022-08-26T07:21:08.212Z,0.87
2022-08-26T07:23:35.742Z,0.80
2022-08-26T07:26:07.301Z,0.90
2022-08-26T07:28:35.433Z,0.80
2022-08-26T07:31:06.102Z,0.90
2022-08-26T07:33:37.222Z,0.80
2022-08-26T07:36:04.771Z,0.90
2022-08-26T07:38:34.373Z,0.90
2022-08-26T07:41:01.920Z,0.70
2022-08-26T07:43:29.639Z,0.80
2022-08-26T07:45:57.193Z,0.90
2022-08-26T07:48:25.023Z,0.90
2022-08-26T07:50:53.739Z,0.80
2022-08-26T07:53:21.987Z,0.87
2022-08-26T07:55:51.610Z,0.80
2022-08-26T07:58:19.398Z,0.90
2022-08-26T08:00:47.537Z,0.80
2022-08-26T08:03:15.890Z,0.90
2022-08-26T08:05:44.359Z,0.67
2022-08-26T08:08:27.965Z,1.00
2022-08-26T08:10:57.162Z,0.80
2022-08-26T08:13:24.570Z,0.80
2022-08-26T08:15:51.967Z,0.90
2022-08-26T08:18:20.500Z,1.07
2022-08-26T08:21:04.824Z,0.87
2022-08-26T08:23:35.824Z,0.90
2022-08-26T08:26:04.682Z,0.90
2022-08-26T08:28:32.213Z,0.80
2022-08-26T08:30:59.822Z,1.00
2022-08-26T08:33:27.162Z,0.80
2022-08-26T08:35:55.386Z,0.97
2022-08-26T08:38:22.881Z,0.80
2022-08-26T08:40:51.723Z,0.90
2022-08-26T08:43:54.440Z,0.80
2022-08-26T08:46:21.787Z,0.90
2022-08-26T08:48:52.127Z,1.00
2022-08-26T08:51:38.149Z,0.90
2022-08-26T08:54:05.613Z,0.90
2022-08-26T08:56:37.754Z,0.90
2022-08-26T08:59:14.615Z,0.80
2022-08-26T09:01:42.272Z,0.90
2022-08-26T09:04:21.612Z,0.80
2022-08-26T09:06:50.484Z,0.80
2022-08-26T09:09:23.293Z,1.00
2022-08-26T09:11:51.167Z,1.00
2022-08-26T09:14:18.778Z,0.90
2022-08-26T09:16:52.696Z,0.90
2022-08-26T09:19:23.208Z,1.00
2022-08-26T09:22:00.497Z,0.90
2022-08-26T09:24:30.078Z,0.93
2022-08-26T09:26:59.090Z,1.00
2022-08-26T09:29:30.895Z,0.90
2022-08-26T09:32:21.183Z,1.00
2022-08-26T09:35:02.105Z,0.90
2022-08-26T09:37:37.309Z,0.93
2022-08-26T09:40:20.579Z,0.90
2022-08-26T09:42:48.118Z,0.90
2022-08-26T09:45:15.590Z,0.90
2022-08-26T09:47:53.465Z,0.97
2022-08-26T09:50:23.613Z,0.90
2022-08-26T09:53:14.978Z,0.90
2022-08-26T09:55:44.290Z,0.87
2022-08-26T09:58:15.863Z,1.00
2022-08-26T10:00:50.978Z,1.00
2022-08-26T10:03:24.614Z,0.90
2022-08-26T10:06:07.042Z,0.97
2022-08-26T10:08:44.137Z,0.90
2022-08-26T10:11:18.615Z,0.83
2022-08-26T10:13:49.308Z,0.90
2022-08-26T10:16:17.661Z,0.90
2022-08-26T10:19:04.760Z,0.90
2022-08-26T10:21:36.529Z,0.90
2022-08-26T10:24:05.132Z,0.83
2022-08-26T10:26:59.058Z,1.00
2022-08-26T10:29:34.270Z,1.10
2022-08-26T10:32:13.845Z,1.00
2022-08-26T10:34:42.328Z,0.90
2022-08-26T10:37:20.447Z,1.00
2022-08-26T10:39:58.577Z,1.00
2022-08-26T10:42:38.053Z,1.00
2022-08-26T10:45:20.059Z,0.80
2022-08-26T10:48:02.067Z,0.90
2022-08-26T10:50:33.748Z,0.90
2022-08-26T10:53:05.685Z,0.80
2022-08-26T10:55:37.895Z,1.00
2022-08-26T10:58:26.199Z,1.00
2022-08-26T11:01:17.279Z,1.00
2022-08-26T11:03:57.901Z,1.10
2022-08-26T11:06:27.972Z,1.00
2022-08-26T11:08:59.819Z,0.90
2022-08-26T11:11:39.455Z,1.00
2022-08-26T11:14:10.569Z,0.90
2022-08-26T11:16:43.283Z,0.90
2022-08-26T11:19:12.603Z,1.07
2022-08-26T11:21:50.733Z,0.80
2022-08-26T11:24:37.118Z,1.00
2022-08-26T11:27:04.557Z,0.80
2022-08-26T11:29:51.255Z,0.80
2022-08-26T11:32:45.770Z,0.90
2022-08-26T11:35:21.806Z,1.00
2022-08-26T11:37:49.195Z,0.90
2022-08-26T11:40:20.619Z,0.90
2022-08-26T11:43:07.019Z,0.90
2022-08-26T11:45:37.615Z,1.00
2022-08-26T11:48:19.069Z,1.00
2022-08-26T11:50:55.382Z,0.80
2022-08-26T11:53:23.428Z,0.83
2022-08-26T11:55:55.474Z,0.73
2022-08-26T11:58:23.540Z,0.83
2022-08-26T12:00:58.523Z,1.00
2022-08-26T12:03:27.336Z,0.90
2022-08-26T12:05:55.143Z,1.00
2022-08-26T12:08:27.815Z,0.90
2022-08-26T12:11:09.405Z,0.83
2022-08-26T12:13:39.067Z,0.80
2022-08-26T12:16:07.176Z,0.90
2022-08-26T12:18:36.394Z,0.80
2022-08-26T12:21:34.734Z,1.03
2022-08-26T12:24:04.057Z,0.87
2022-08-26T12:26:36.468Z,0.83
2022-08-26T12:29:19.911Z,0.80
2022-08-26T12:31:48.168Z,1.07
2022-08-26T12:34:18.210Z,1.00
2022-08-26T12:36:50.797Z,0.97
2022-08-26T12:39:27.882Z,0.80
2022-08-26T12:42:15.935Z,0.80
2022-08-26T12:44:53.793Z,0.90
2022-08-26T12:47:30.864Z,1.00
2022-08-26T12:50:20.047Z,0.80
2022-08-26T12:53:14.860Z,0.90
2022-08-26T12:55:42.321Z,0.83
2022-08-26T12:58:26.905Z,0.90
2022-08-26T13:00:58.999Z,1.00
2022-08-26T13:03:29.335Z,0.97
2022-08-26T13:06:16.381Z,0.90
2022-08-26T13:08:51.413Z,0.80
2022-08-26T13:11:20.471Z,0.80
2022-08-26T13:13:51.713Z,0.90
2022-08-26T13:16:20.107Z,0.87
2022-08-26T13:18:51.719Z,0.93
2022-08-26T13:21:47.833Z,0.90
2022-08-26T13:24:20.465Z,0.80
2022-08-26T13:26:51.684Z,0.80
2022-08-26T13:29:19.520Z,0.90
2022-08-26T13:31:48.306Z,0.90
2022-08-26T13:34:20.711Z,0.80
2022-08-26T13:36:49.643Z,1.13
2022-08-26T13:39:17.764Z,0.90
2022-08-26T13:41:45.221Z,1.13
2022-08-26T13:44:13.634Z,0.80
2022-08-26T13:46:41.487Z,0.80
2022-08-26T13:49:09.031Z,0.87
2022-08-26T13:51:36.523Z,0.80
2022-08-26T13:54:05.122Z,0.90
2022-08-26T13:56:33.060Z,0.80
2022-08-26T13:59:01.298Z,0.90
2022-08-26T14:01:29.755Z,0.93
2022-08-26T14:03:57.340Z,0.80
2022-08-26T14:06:25.279Z,1.10
2022-08-26T14:08:52.832Z,0.90
2022-08-26T14:11:20.544Z,0.90
2022-08-26T14:13:47.940Z,0.90
2022-08-26T14:16:20.758Z,1.00
2022-08-26T14:18:50.913Z,1.10
2022-08-26T14:21:19.052Z,0.90
2022-08-26T14:23:46.543Z,1.20
2022-08-26T14:26:14.329Z,1.00
2022-08-26T14:28:55.293Z,1.00
2022-08-26T14:31:23.913Z,0.90
2022-08-26T14:33:51.495Z,1.10
2022-08-26T14:36:27.999Z,0.93
2022-08-26T14:38:56.335Z,0.90
2022-08-26T14:41:28.165Z,0.90
2022-08-26T14:44:00.084Z,1.00
2022-08-26T14:46:32.421Z,0.90
2022-08-26T14:49:01.556Z,0.97
2022-08-26T14:51:29.084Z,1.10
2022-08-26T14:54:11.950Z,1.10
2022-08-26T14:56:41.949Z,1.10
2022-08-26T14:59:10.379Z,1.10
2022-08-26T15:01:37.974Z,1.10
2022-08-26T15:04:05.442Z,1.00
2022-08-26T15:06:33.136Z,0.90
2022-08-26T15:09:00.671Z,1.20
2022-08-26T15:11:28.418Z,0.90
2022-08-26T15:13:55.899Z,0.80
2022-08-26T15:16:23.654Z,1.10
2022-08-26T15:18:51.769Z,0.90
2022-08-26T15:21:20.297Z,0.97
2022-08-26T15:23:48.264Z,1.00
2022-08-26T15:26:16.059Z,0.80
2022-08-26T15:28:43.722Z,0.90
2022-08-26T15:31:11.252Z,1.10
2022-08-26T15:33:40.394Z,1.10
2022-08-26T15:36:08.161Z,1.20
2022-08-26T15:38:40.415Z,1.00
2022-08-26T15:41:08.718Z,1.00
2022-08-26T15:43:37.292Z,0.83
2022-08-26T15:46:05.174Z,1.20
2022-08-26T15:48:32.650Z,1.00
2022-08-26T15:51:01.560Z,1.20
2022-08-26T15:53:30.254Z,1.00
2022-08-26T15:55:58.617Z,1.10
2022-08-26T15:58:26.931Z,1.00
2022-08-26T16:00:55.370Z,1.00
2022-08-26T16:03:22.868Z,1.10
2022-08-26T16:05:50.748Z,1.30
2022-08-26T16:08:18.955Z,1.20
2022-08-26T16:10:50.382Z,0.97
2022-08-26T16:13:19.685Z,1.00
2022-08-26T16:15:48.073Z,1.10
2022-08-26T16:18:15.693Z,0.90
2022-08-26T16:21:12.904Z,1.00
2022-08-26T16:23:45.012Z,1.20
2022-08-26T16:26:14.191Z,1.07
2022-08-26T16:28:41.625Z,1.10
2022-08-26T16:31:11.267Z,1.53
2022-08-26T16:33:38.910Z,1.20
2022-08-26T16:36:06.557Z,1.30
2022-08-26T16:38:34.437Z,1.00
2022-08-26T16:41:02.084Z,1.10
2022-08-26T16:43:29.450Z,1.00
2022-08-26T16:45:56.963Z,0.93
2022-08-26T16:48:24.411Z,1.03
2022-08-26T16:50:52.655Z,1.10
2022-08-26T16:53:20.077Z,1.00
2022-08-26T16:55:48.197Z,1.10
2022-08-26T16:58:15.791Z,1.30
2022-08-26T17:00:43.430Z,1.00
2022-08-26T17:03:10.875Z,1.00
2022-08-26T17:05:38.587Z,1.30
2022-08-26T17:08:06.210Z,1.10
2022-08-26T17:10:34.062Z,0.90
2022-08-26T17:13:01.510Z,0.87
2022-08-26T17:15:29.317Z,0.90
2022-08-26T17:17:57.127Z,1.10
2022-08-26T17:20:25.463Z,0.90
2022-08-26T17:22:54.199Z,1.00
2022-08-26T17:25:29.210Z,0.93
2022-08-26T17:30:29.708Z,1.00
2022-08-26T17:32:58.249Z,0.97
2022-08-26T17:35:27.038Z,1.07
2022-08-26T17:37:56.110Z,1.00
2022-08-26T17:40:24.795Z,1.10
2022-08-26T17:42:52.287Z,1.10
2022-08-26T17:47:48.194Z,1.20
2022-08-26T17:50:16.944Z,1.30
2022-08-26T17:52:44.739Z,0.90
2022-08-26T17:55:12.916Z,1.10
2022-08-26T17:57:40.943Z,1.20
2022-08-26T18:00:13.025Z,1.07
2022-08-26T18:02:40.929Z,1.20
2022-08-26T18:05:09.208Z,1.03
2022-08-26T18:07:43.763Z,1.00
2022-08-26T18:10:13.360Z,0.97
2022-08-26T18:12:41.602Z,1.00
2022-08-26T18:15:10.123Z,0.80
2022-08-26T18:17:39.059Z,0.97
2022-08-26T18:20:10.428Z,0.90
2022-08-26T18:22:37.761Z,0.80
2022-08-26T18:25:05.905Z,1.13
2022-08-26T18:27:35.535Z,1.10
2022-08-26T18:30:04.193Z,0.80
2022-08-26T18:32:31.535Z,0.90
2022-08-26T18:34:59.597Z,1.10
2022-08-26T18:37:29.545Z,0.90
2022-08-26T18:39:59.579Z,1.00
2022-08-26T18:42:27.584Z,0.90
2022-08-26T18:44:54.905Z,0.80
2022-08-26T18:47:22.799Z,0.90
2022-08-26T18:49:50.499Z,0.87
2022-08-26T18:52:17.851Z,0.90
2022-08-26T18:54:45.193Z,0.80
2022-08-26T18:57:12.642Z,1.00
2022-08-26T18:59:40.977Z,0.90
2022-08-26T19:02:09.695Z,1.10
2022-08-26T19:04:40.961Z,0.90
2022-08-26T19:07:08.587Z,1.10
2022-08-26T19:09:36.170Z,0.93
2022-08-26T19:12:04.109Z,0.90
2022-08-26T19:14:32.658Z,1.07
2022-08-26T19:17:01.181Z,1.27
2022-08-26T19:19:28.893Z,1.00
2022-08-26T19:21:56.291Z,1.00
2022-08-26T19:24:25.966Z,1.00
2022-08-26T19:26:58.058Z,0.90
2022-08-26T19:29:27.219Z,0.90
2022-08-26T19:31:54.590Z,0.80
2022-08-26T19:34:21.906Z,0.80
2022-08-26T19:36:49.574Z,0.93
2022-08-26T19:39:17.019Z,1.00
2022-08-26T19:41:44.454Z,0.93
2022-08-26T19:44:13.253Z,1.13
2022-08-26T19:46:40.954Z,0.90
2022-08-26T19:49:08.411Z,0.90
2022-08-26T19:51:36.550Z,0.90
2022-08-26T19:54:04.380Z,0.90
2022-08-26T19:56:32.243Z,1.10
2022-08-26T19:58:59.590Z,1.00
2022-08-26T20:01:27.037Z,0.90
2022-08-26T20:06:26.715Z,0.90
2022-08-26T20:08:56.145Z,1.13
2022-08-26T20:11:24.234Z,1.20
2022-08-26T20:13:51.587Z,1.00
2022-08-26T20:16:19.066Z,1.20
2022-08-26T20:19:05.219Z,1.00
2022-08-26T20:21:35.639Z,1.00
2022-08-26T20:24:05.008Z,0.97
2022-08-26T20:26:34.624Z,1.10
2022-08-26T20:29:01.981Z,1.03
2022-08-26T20:31:29.747Z,0.90
2022-08-26T20:33:57.653Z,0.90
2022-08-26T20:36:26.953Z,1.00
2022-08-26T20:38:54.927Z,1.03
2022-08-26T20:41:24.085Z,0.80
2022-08-26T20:43:51.612Z,1.10
2022-08-26T20:46:22.970Z,0.90
2022-08-26T20:48:52.050Z,0.97
2022-08-26T20:51:19.601Z,0.80
2022-08-26T20:53:47.716Z,1.00
2022-08-26T20:56:15.996Z,1.20
2022-08-26T20:58:43.542Z,1.00
2022-08-26T21:01:17.929Z,1.00
2022-08-26T21:03:45.617Z,1.00
2022-08-26T21:06:13.042Z,0.90
2022-08-26T21:08:42.646Z,0.90
2022-08-26T21:11:11.519Z,1.10
2022-08-26T21:14:03.393Z,1.20
2022-08-26T21:16:27.200Z,0.90
2022-08-26T21:18:54.741Z,1.00
2022-08-26T21:21:25.055Z,1.00
2022-08-26T21:23:52.830Z,1.10
2022-08-26T21:26:20.281Z,1.00
2022-08-26T21:28:47.827Z,1.07
2022-08-26T21:31:17.532Z,1.00
2022-08-26T21:33:45.374Z,1.00
2022-08-26T21:36:13.426Z,1.10
2022-08-26T21:38:41.688Z,1.30
2022-08-26T21:41:18.759Z,1.07
2022-08-26T21:43:46.699Z,1.00
2022-08-26T21:46:15.745Z,1.10
2022-08-26T21:48:47.622Z,1.07
2022-08-26T21:51:18.555Z,1.40
2022-08-26T21:53:46.323Z,1.13
2022-08-26T21:56:15.340Z,1.03
2022-08-26T21:58:42.860Z,0.90
2022-08-26T22:01:15.181Z,1.00
2022-08-26T22:03:46.669Z,1.10
2022-08-26T22:06:16.742Z,0.90
2022-08-26T22:08:44.278Z,0.93
2022-08-26T22:11:12.080Z,1.00
2022-08-26T22:13:40.296Z,0.90
2022-08-26T22:16:08.066Z,0.77
2022-08-26T22:18:35.968Z,0.93
2022-08-26T22:21:05.414Z,1.00
2022-08-26T22:23:33.074Z,0.90
2022-08-26T22:26:00.628Z,1.00
2022-08-26T22:28:28.320Z,0.97
2022-08-26T22:30:55.934Z,0.90
2022-08-26T22:33:23.603Z,0.93
2022-08-26T22:35:52.714Z,0.90
2022-08-26T22:38:20.668Z,0.90
2022-08-26T22:40:50.555Z,1.00
2022-08-26T22:43:18.371Z,0.83
2022-08-26T22:45:47.011Z,1.00
2022-08-26T22:48:16.063Z,0.90
2022-08-26T22:50:44.218Z,1.00
2022-08-26T22:53:11.613Z,0.80
2022-08-26T22:55:39.313Z,0.93
2022-08-26T22:58:07.066Z,0.80
2022-08-26T23:00:34.801Z,0.90
2022-08-26T23:03:03.030Z,0.90
2022-08-26T23:05:31.109Z,0.90
2022-08-26T23:07:58.982Z,0.90
2022-08-26T23:10:26.608Z,0.90
2022-08-26T23:12:53.993Z,0.90
2022-08-26T23:15:22.013Z,0.70
2022-08-26T23:17:58.547Z,0.90
2022-08-26T23:20:26.882Z,1.27
2022-08-26T23:22:54.583Z,0.90
2022-08-26T23:25:22.433Z,0.90
2022-08-26T23:27:51.867Z,0.90
2022-08-26T23:30:21.541Z,1.10
2022-08-26T23:32:48.957Z,1.07
2022-08-26T23:35:21.585Z,0.90
2022-08-26T23:37:52.965Z,1.00
2022-08-26T23:40:32.240Z,0.90
2022-08-26T23:43:00.768Z,1.00
2022-08-26T23:45:28.829Z,1.10
2022-08-26T23:47:56.290Z,0.80
2022-08-26T23:50:48.599Z,0.90
2022-08-26T23:53:20.462Z,0.83
2022-08-26T23:55:49.025Z,0.83
2022-08-26T23:58:17.814Z,1.10
